createdAt,value
2022-08-24T00:02:01.764Z,17.17
2022-08-24T00:04:32.301Z,19.00
2022-08-24T00:07:02.306Z,17.08
2022-08-24T00:09:32.425Z,17.52
2022-08-24T00:12:02.622Z,16.60
2022-08-24T00:14:31.032Z,17.50
2022-08-24T00:17:00.103Z,18.30
2022-08-24T00:19:29.229Z,16.60
2022-08-24T00:21:56.803Z,16.15
2022-08-24T00:24:25.301Z,17.80
2022-08-24T00:26:54.263Z,18.95
2022-08-24T00:29:22.722Z,18.45
2022-08-24T00:31:50.678Z,18.83
2022-08-24T00:34:18.816Z,18.73
2022-08-24T00:36:46.604Z,18.73
2022-08-24T00:39:14.332Z,16.25
2022-08-24T00:41:47.459Z,18.13
2022-08-24T00:44:17.271Z,18.55
2022-08-24T00:46:48.146Z,19.38
2022-08-24T00:49:49.678Z,20.03
2022-08-24T00:52:25.258Z,17.90
2022-08-24T00:55:05.899Z,18.88
2022-08-24T00:57:41.496Z,18.35
2022-08-24T01:00:19.091Z,17.45
2022-08-24T01:02:51.239Z,19.23
2022-08-24T01:05:19.391Z,18.98
2022-08-24T01:07:49.338Z,17.40
2022-08-24T01:10:23.911Z,18.58
2022-08-24T01:13:00.558Z,20.83
2022-08-24T01:15:33.808Z,22.35
2022-08-24T01:18:24.501Z,24.00
2022-08-24T01:21:16.224Z,25.27
2022-08-24T01:26:25.536Z,23.88
2022-08-24T01:28:59.860Z,26.08
2022-08-24T01:31:27.528Z,25.17
2022-08-24T01:33:56.125Z,24.65
2022-08-24T01:36:55.912Z,23.92
2022-08-24T01:39:36.173Z,24.30
2022-08-24T01:42:04.659Z,21.38
2022-08-24T01:44:36.942Z,20.25
2022-08-24T01:47:07.930Z,22.85
2022-08-24T01:49:42.183Z,25.48
2022-08-24T01:52:15.747Z,22.38
2022-08-24T01:54:43.770Z,20.52
2022-08-24T01:57:16.135Z,20.33
2022-08-24T01:59:44.634Z,21.55
2022-08-24T02:02:19.791Z,22.08
2022-08-24T02:04:47.842Z,24.10
2022-08-24T02:07:15.496Z,22.13
2022-08-24T02:09:43.326Z,20.75
2022-08-24T02:12:11.833Z,22.98
2022-08-24T02:14:39.784Z,25.73
2022-08-24T02:17:09.564Z,27.38
2022-08-24T02:19:37.738Z,27.10
2022-08-24T02:22:08.718Z,25.55
2022-08-24T02:24:39.063Z,24.47
2022-08-24T02:27:08.266Z,25.83
2022-08-24T02:29:36.460Z,25.08
2022-08-24T02:32:07.039Z,27.17
2022-08-24T02:34:34.673Z,28.70
2022-08-24T02:37:02.098Z,26.95
2022-08-24T02:39:29.627Z,24.55
2022-08-24T02:41:57.511Z,27.15
2022-08-24T02:44:25.154Z,28.73
2022-08-24T02:46:53.007Z,27.33
2022-08-24T02:49:22.993Z,28.10
2022-08-24T02:51:51.548Z,28.90
2022-08-24T02:54:21.702Z,25.20
2022-08-24T02:56:52.622Z,23.00
2022-08-24T02:59:22.333Z,25.42
2022-08-24T03:01:51.097Z,23.17
2022-08-24T03:04:21.198Z,25.90
2022-08-24T03:06:48.717Z,26.13
2022-08-24T03:09:17.740Z,26.50
2022-08-24T03:11:45.793Z,26.30
2022-08-24T03:14:14.933Z,28.48
2022-08-24T03:16:43.354Z,28.48
2022-08-24T03:19:12.408Z,27.02
2022-08-24T03:21:43.450Z,27.85
2022-08-24T03:24:12.482Z,29.00
2022-08-24T03:26:44.358Z,29.17
2022-08-24T03:29:15.830Z,24.40
2022-08-24T03:31:45.134Z,28.23
2022-08-24T03:34:13.394Z,28.20
2022-08-24T03:36:46.510Z,26.58
2022-08-24T03:39:17.011Z,27.10
2022-08-24T03:41:44.782Z,27.08
2022-08-24T03:44:12.609Z,28.73
2022-08-24T03:46:41.583Z,29.33
2022-08-24T03:49:09.996Z,26.90
2022-08-24T03:51:39.234Z,29.25
2022-08-24T03:54:11.390Z,25.05
2022-08-24T03:56:40.187Z,27.40
2022-08-24T03:59:10.583Z,23.65
2022-08-24T04:01:41.204Z,24.10
2022-08-24T04:04:10.649Z,24.33
2022-08-24T04:06:40.427Z,26.45
2022-08-24T04:09:08.308Z,27.17
2022-08-24T04:11:41.475Z,26.73
2022-08-24T04:14:23.740Z,28.23
2022-08-24T04:17:01.762Z,28.90
2022-08-24T04:19:35.265Z,28.65
2022-08-24T04:22:03.022Z,28.83
2022-08-24T04:24:31.193Z,28.63
2022-08-24T04:26:58.865Z,30.10
2022-08-24T04:29:26.509Z,29.60
2022-08-24T04:31:54.147Z,30.98
2022-08-24T04:34:23.275Z,28.83
2022-08-24T04:36:51.732Z,28.60
2022-08-24T04:39:19.233Z,29.33
2022-08-24T04:42:06.694Z,27.90
2022-08-24T04:44:40.035Z,28.00
2022-08-24T04:47:08.758Z,27.50
2022-08-24T04:49:38.845Z,29.15
2022-08-24T04:52:08.502Z,26.50
2022-08-24T04:54:36.570Z,31.05
2022-08-24T04:57:13.467Z,31.98
2022-08-24T04:59:43.961Z,33.75
2022-08-24T05:02:11.625Z,33.83
2022-08-24T05:04:39.374Z,32.08
2022-08-24T05:07:09.175Z,32.67
2022-08-24T05:09:41.192Z,31.90
2022-08-24T05:12:11.828Z,28.52
2022-08-24T05:14:44.374Z,27.77
2022-08-24T05:17:12.001Z,29.67
2022-08-24T05:19:40.333Z,30.25
2022-08-24T05:22:08.054Z,28.05
2022-08-24T05:24:36.750Z,24.60
2022-08-24T05:27:04.752Z,30.73
2022-08-24T05:29:34.642Z,31.20
2022-08-24T05:32:03.084Z,31.52
2022-08-24T05:34:32.468Z,31.30
2022-08-24T05:36:59.932Z,32.40
2022-08-24T05:39:37.843Z,34.67
2022-08-24T05:42:09.355Z,39.22
2022-08-24T05:44:44.200Z,39.58
2022-08-24T05:47:12.090Z,36.90
2022-08-24T05:49:41.704Z,36.42
2022-08-24T05:52:10.764Z,33.67
2022-08-24T05:54:38.292Z,37.50
2022-08-24T05:57:06.427Z,36.40
2022-08-24T05:59:43.498Z,35.25
2022-08-24T06:02:19.596Z,36.55
2022-08-24T06:04:47.386Z,41.67
2022-08-24T06:07:16.449Z,45.22
2022-08-24T06:09:49.262Z,44.78
2022-08-24T06:12:17.211Z,49.63
2022-08-24T06:14:47.859Z,58.88
2022-08-24T06:17:18.920Z,55.03
2022-08-24T06:19:46.999Z,58.35
2022-08-24T06:22:14.475Z,58.90
2022-08-24T06:25:00.797Z,57.15
2022-08-24T06:27:29.346Z,56.30
2022-08-24T06:30:12.067Z,53.45
2022-08-24T06:32:44.071Z,53.67
2022-08-24T06:35:20.122Z,47.17
2022-08-24T06:37:48.756Z,48.35
2022-08-24T06:40:20.369Z,46.85
2022-08-24T06:45:43.854Z,45.17
2022-08-24T06:48:14.017Z,45.15
2022-08-24T06:50:42.866Z,44.47
2022-08-24T06:53:14.756Z,47.17
2022-08-24T06:55:57.337Z,44.33
2022-08-24T06:58:28.782Z,43.88
2022-08-24T07:00:57.361Z,42.33
2022-08-24T07:03:25.876Z,41.85
2022-08-24T07:06:07.612Z,39.60
2022-08-24T07:08:43.558Z,41.90
2022-08-24T07:11:15.431Z,36.38
2022-08-24T07:13:46.575Z,37.13
2022-08-24T07:16:17.807Z,34.38
2022-08-24T07:18:50.306Z,32.35
2022-08-24T07:21:21.348Z,35.78
2022-08-24T07:23:56.693Z,34.40
2022-08-24T07:26:28.036Z,33.88
2022-08-24T07:29:06.877Z,32.13
2022-08-24T07:31:43.947Z,29.73
2022-08-24T07:34:22.997Z,30.92
2022-08-24T07:36:52.222Z,28.08
2022-08-24T07:39:20.274Z,31.50
2022-08-24T07:42:09.056Z,28.60
2022-08-24T07:44:35.970Z,25.33
2022-08-24T07:47:27.181Z,21.13
2022-08-24T07:49:53.411Z,26.60
2022-08-24T07:52:20.977Z,29.98
2022-08-24T07:54:49.513Z,38.17
2022-08-24T07:57:17.324Z,35.35
2022-08-24T07:59:46.983Z,30.73
2022-08-24T08:02:14.808Z,35.33
2022-08-24T08:04:47.849Z,35.67
2022-08-24T08:07:17.426Z,30.08
2022-08-24T08:09:49.474Z,30.55
2022-08-24T08:12:19.307Z,29.60
2022-08-24T08:14:57.367Z,28.85
2022-08-24T08:17:25.822Z,18.73
2022-08-24T08:19:53.746Z,28.40
2022-08-24T08:22:39.750Z,28.38
2022-08-24T08:25:52.303Z,23.98
2022-08-24T08:31:06.487Z,13.20
2022-08-24T08:33:36.243Z,19.40
2022-08-24T08:36:11.606Z,13.75
2022-08-24T08:38:45.160Z,14.00
2022-08-24T08:41:23.162Z,15.13
2022-08-24T08:44:15.759Z,10.52
2022-08-24T08:47:06.736Z,13.75
2022-08-24T08:50:05.247Z,12.32
2022-08-24T08:53:22.662Z,11.73
2022-08-24T08:56:38.117Z,11.95
2022-08-24T08:59:38.608Z,12.80
2022-08-24T09:02:48.700Z,9.70
2022-08-24T09:05:31.572Z,7.65
2022-08-24T09:08:59.639Z,10.05
2022-08-24T09:11:45.037Z,7.30
2022-08-24T09:14:59.152Z,7.72
2022-08-24T09:18:04.882Z,10.60
2022-08-24T09:20:48.285Z,10.27
2022-08-24T09:23:48.078Z,7.57
2022-08-24T09:26:47.995Z,10.98
2022-08-24T09:29:30.144Z,8.70
2022-08-24T09:32:37.394Z,7.18
2022-08-24T09:35:26.796Z,5.68
2022-08-24T09:38:17.794Z,7.38
2022-08-24T09:41:03.836Z,4.10
2022-08-24T09:43:43.545Z,5.30
2022-08-24T09:46:45.333Z,4.95
2022-08-24T09:49:53.477Z,5.88
2022-08-24T09:52:39.282Z,5.10
2022-08-24T09:56:00.472Z,8.65
2022-08-24T09:58:59.928Z,8.00
2022-08-24T10:01:38.045Z,5.30
2022-08-24T10:04:50.974Z,8.80
2022-08-24T10:07:37.875Z,5.80
2022-08-24T10:10:36.332Z,9.50
2022-08-24T10:13:31.220Z,9.32
2022-08-24T10:16:32.400Z,7.00
2022-08-24T10:22:19.552Z,6.57
2022-08-24T10:25:31.590Z,5.35
2022-08-24T10:28:21.453Z,6.40
2022-08-24T10:31:12.659Z,6.13
2022-08-24T10:34:11.689Z,8.02
2022-08-24T10:36:53.414Z,6.20
2022-08-24T10:40:06.308Z,6.28
2022-08-24T10:43:35.543Z,4.78
2022-08-24T10:46:38.328Z,5.82
2022-08-24T10:50:02.129Z,4.22
2022-08-24T10:52:53.341Z,4.57
2022-08-24T10:55:32.273Z,4.38
2022-08-24T10:58:34.870Z,5.45
2022-08-24T11:01:30.049Z,4.32
2022-08-24T11:04:09.714Z,4.22
2022-08-24T11:07:05.840Z,6.10
2022-08-24T11:09:54.035Z,5.75
2022-08-24T11:12:43.237Z,4.38
2022-08-24T11:15:26.181Z,3.95
2022-08-24T11:18:04.080Z,5.05
2022-08-24T11:20:36.442Z,6.18
2022-08-24T11:23:31.729Z,7.68
2022-08-24T11:26:07.434Z,3.78
2022-08-24T11:29:01.172Z,4.38
2022-08-24T11:31:39.821Z,3.97
2022-08-24T11:34:14.524Z,5.85
2022-08-24T11:36:43.067Z,4.85
2022-08-24T11:39:35.448Z,5.10
2022-08-24T11:42:29.090Z,4.45
2022-08-24T11:45:15.490Z,4.15
2022-08-24T11:48:29.696Z,4.82
2022-08-24T11:51:17.628Z,5.30
2022-08-24T11:54:24.581Z,4.18
2022-08-24T11:57:08.465Z,7.07
2022-08-24T11:59:59.943Z,4.63
2022-08-24T12:02:59.035Z,5.03
2022-08-24T12:06:03.688Z,5.57
2022-08-24T12:08:55.397Z,5.50
2022-08-24T12:11:44.583Z,5.63
2022-08-24T12:14:31.186Z,7.95
2022-08-24T12:17:18.762Z,6.60
2022-08-24T12:20:01.494Z,9.20
2022-08-24T12:22:32.035Z,4.72
2022-08-24T12:25:24.676Z,6.22
2022-08-24T12:27:55.601Z,4.13
2022-08-24T12:30:23.171Z,5.90
2022-08-24T12:33:07.113Z,8.07
2022-08-24T12:35:50.201Z,5.63
2022-08-24T12:38:27.691Z,3.60
2022-08-24T12:41:33.977Z,6.00
2022-08-24T12:44:14.653Z,8.45
2022-08-24T12:46:44.564Z,4.53
2022-08-24T12:49:23.595Z,5.10
2022-08-24T12:52:15.466Z,4.38
2022-08-24T12:55:01.301Z,6.18
2022-08-24T12:58:30.879Z,6.78
2022-08-24T13:00:57.177Z,4.20
2022-08-24T13:03:39.899Z,5.43
2022-08-24T13:06:38.897Z,4.38
2022-08-24T13:09:36.783Z,4.78
2022-08-24T13:12:38.589Z,4.45
2022-08-24T13:15:47.777Z,4.72
2022-08-24T13:18:15.268Z,6.93
2022-08-24T13:20:42.610Z,6.10
2022-08-24T13:23:11.274Z,6.03
2022-08-24T13:25:47.682Z,7.22
2022-08-24T13:28:20.915Z,5.90
2022-08-24T13:31:20.710Z,6.85
2022-08-24T13:34:22.056Z,5.72
2022-08-24T13:37:23.487Z,4.50
2022-08-24T13:39:59.763Z,5.18
2022-08-24T13:43:07.743Z,6.20
2022-08-24T13:45:52.433Z,5.80
2022-08-24T13:48:33.944Z,8.32
2022-08-24T13:51:35.237Z,4.68
2022-08-24T13:54:22.428Z,5.68
2022-08-24T13:57:23.120Z,5.28
2022-08-24T14:00:13.004Z,4.63
2022-08-24T14:03:05.296Z,7.30
2022-08-24T14:05:57.723Z,3.40
2022-08-24T14:08:44.315Z,4.60
2022-08-24T14:11:23.976Z,5.18
2022-08-24T14:14:19.248Z,6.00
2022-08-24T14:17:22.096Z,4.30
2022-08-24T14:20:14.296Z,6.90
2022-08-24T14:23:35.060Z,5.77
2022-08-24T14:26:35.143Z,4.25
2022-08-24T14:29:20.485Z,3.88
2022-08-24T14:32:12.203Z,5.05
2022-08-24T14:35:18.239Z,7.97
2022-08-24T14:38:05.643Z,5.97
2022-08-24T14:41:03.416Z,5.65
2022-08-24T14:44:01.325Z,5.70
2022-08-24T14:47:00.667Z,6.80
2022-08-24T14:49:45.976Z,6.68
2022-08-24T14:53:04.822Z,5.00
2022-08-24T14:56:05.199Z,5.05
2022-08-24T14:59:14.593Z,5.25
2022-08-24T15:02:45.185Z,4.38
2022-08-24T15:05:25.451Z,4.13
2022-08-24T15:08:42.930Z,3.78
2022-08-24T15:11:35.971Z,4.70
2022-08-24T15:14:30.088Z,5.50
2022-08-24T15:17:15.832Z,9.15
2022-08-24T15:20:02.529Z,12.07
2022-08-24T15:22:50.281Z,5.30
2022-08-24T15:25:39.712Z,3.28
2022-08-24T15:28:24.961Z,25.73
2022-08-24T15:31:02.188Z,5.07
2022-08-24T15:33:31.285Z,7.65
2022-08-24T15:36:16.146Z,4.30
2022-08-24T15:38:44.585Z,3.65
2022-08-24T15:41:33.317Z,4.25
2022-08-24T15:44:33.155Z,6.25
2022-08-24T15:47:14.795Z,6.25
2022-08-24T15:50:07.638Z,6.95
2022-08-24T15:52:44.073Z,8.07
2022-08-24T15:55:31.399Z,5.57
2022-08-24T15:58:25.423Z,9.80
2022-08-24T16:01:18.428Z,3.58
2022-08-24T16:03:56.807Z,6.30
2022-08-24T16:06:33.179Z,4.95
2022-08-24T16:09:20.920Z,5.25
2022-08-24T16:12:03.747Z,4.35
2022-08-24T16:14:39.604Z,4.22
2022-08-24T16:17:47.124Z,7.18
2022-08-24T16:20:21.056Z,5.32
2022-08-24T16:23:03.602Z,9.68
2022-08-24T16:25:42.739Z,6.13
2022-08-24T16:28:23.116Z,5.97
2022-08-24T16:30:58.216Z,6.65
2022-08-24T16:33:45.744Z,4.70
2022-08-24T16:36:20.012Z,7.13
2022-08-24T16:38:51.562Z,6.13
2022-08-24T16:41:24.165Z,7.10
2022-08-24T16:43:51.897Z,9.32
2022-08-24T16:46:23.690Z,7.40
2022-08-24T16:48:54.085Z,7.03
2022-08-24T16:51:24.564Z,5.15
2022-08-24T16:56:20.657Z,4.97
2022-08-24T16:58:49.028Z,7.38
2022-08-24T17:01:17.224Z,6.88
2022-08-24T17:03:44.736Z,5.80
2022-08-24T17:06:12.958Z,6.88
2022-08-24T17:08:40.925Z,6.47
2022-08-24T17:11:09.403Z,10.18
2022-08-24T17:13:49.315Z,7.82
2022-08-24T17:16:20.263Z,6.90
2022-08-24T17:21:15.638Z,5.47
2022-08-24T17:23:43.596Z,5.40
2022-08-24T17:26:21.008Z,7.35
2022-08-24T17:28:54.462Z,5.88
2022-08-24T17:31:24.743Z,9.25
2022-08-24T17:33:53.153Z,6.40
2022-08-24T17:36:23.793Z,7.25
2022-08-24T17:38:56.135Z,8.35
2022-08-24T17:41:26.353Z,5.28
2022-08-24T17:43:55.658Z,6.72
2022-08-24T17:46:24.081Z,6.38
2022-08-24T17:48:51.736Z,7.80
2022-08-24T17:51:19.722Z,7.03
2022-08-24T17:53:47.684Z,12.07
2022-08-24T17:56:16.347Z,12.75
2022-08-24T17:59:03.658Z,12.65
2022-08-24T18:01:32.682Z,13.57
2022-08-24T18:04:00.240Z,8.98
2022-08-24T18:06:28.746Z,12.27
2022-08-24T18:09:02.876Z,18.88
2022-08-24T18:11:30.946Z,8.25
2022-08-24T18:13:59.163Z,10.55
2022-08-24T18:16:30.232Z,9.80
2022-08-24T18:18:58.066Z,9.30
2022-08-24T18:21:25.516Z,12.15
2022-08-24T18:23:53.226Z,9.45
2022-08-24T18:26:30.518Z,14.30
2022-08-24T18:29:07.588Z,10.55
2022-08-24T18:31:35.605Z,11.73
2022-08-24T18:34:03.341Z,11.55
2022-08-24T18:36:31.098Z,10.07
2022-08-24T18:38:58.798Z,10.30
2022-08-24T18:41:35.701Z,12.07
2022-08-24T18:44:06.332Z,7.10
2022-08-24T18:46:34.610Z,8.00
2022-08-24T18:49:02.465Z,13.00
2022-08-24T18:51:37.015Z,14.13
2022-08-24T18:54:10.409Z,11.15
2022-08-24T18:56:38.853Z,12.00
2022-08-24T18:59:06.826Z,11.00
2022-08-24T19:01:57.335Z,11.32
2022-08-24T19:04:26.903Z,15.27
2022-08-24T19:07:01.205Z,13.82
2022-08-24T19:09:34.020Z,12.73
2022-08-24T19:12:05.350Z,12.43
2022-08-24T19:14:35.685Z,10.55
2022-08-24T19:17:04.450Z,8.40
2022-08-24T19:19:32.612Z,11.32
2022-08-24T19:22:02.533Z,5.30
2022-08-24T19:24:32.376Z,9.68
2022-08-24T19:27:01.813Z,9.25
2022-08-24T19:29:54.102Z,12.77
2022-08-24T19:32:26.162Z,16.77
2022-08-24T19:34:55.541Z,11.15
2022-08-24T19:37:23.685Z,12.35
2022-08-24T19:39:51.340Z,9.38
2022-08-24T19:42:20.750Z,9.25
2022-08-24T19:45:06.671Z,13.77
2022-08-24T19:47:34.525Z,11.80
2022-08-24T19:50:07.771Z,9.02
2022-08-24T19:52:37.981Z,9.45
2022-08-24T19:55:10.036Z,7.68
2022-08-24T19:57:53.518Z,8.75
2022-08-24T20:00:34.884Z,7.43
2022-08-24T20:03:04.634Z,6.80
2022-08-24T20:05:32.835Z,9.10
2022-08-24T20:08:03.363Z,8.00
2022-08-24T20:10:33.697Z,6.35
2022-08-24T20:13:01.714Z,11.67
2022-08-24T20:15:30.674Z,6.75
2022-08-24T20:18:00.263Z,10.73
2022-08-24T20:20:30.568Z,11.60
2022-08-24T20:23:03.093Z,12.13
2022-08-24T20:25:31.196Z,11.57
2022-08-24T20:28:25.608Z,5.57
2022-08-24T20:30:48.943Z,6.05
2022-08-24T20:33:21.094Z,10.30
2022-08-24T20:35:48.650Z,9.23
2022-08-24T20:38:20.179Z,6.43
2022-08-24T20:40:49.015Z,6.60
2022-08-24T20:43:16.761Z,8.07
2022-08-24T20:45:45.389Z,8.57
2022-08-24T20:48:14.478Z,7.43
2022-08-24T20:50:43.374Z,9.07
2022-08-24T20:53:12.114Z,9.95
2022-08-24T20:55:41.580Z,11.07
2022-08-24T20:58:10.060Z,8.95
2022-08-24T21:00:37.867Z,6.93
2022-08-24T21:03:05.658Z,7.45
2022-08-24T21:05:33.153Z,10.15
2022-08-24T21:08:00.681Z,10.38
2022-08-24T21:10:28.139Z,8.88
2022-08-24T21:12:55.729Z,10.20
2022-08-24T21:15:23.554Z,8.90
2022-08-24T21:17:51.127Z,8.07
2022-08-24T21:20:20.187Z,6.70
2022-08-24T21:22:48.403Z,5.63
2022-08-24T21:25:19.584Z,5.65
2022-08-24T21:27:48.791Z,8.23
2022-08-24T21:30:22.294Z,7.47
2022-08-24T21:33:09.859Z,7.40
2022-08-24T21:35:38.787Z,11.15
2022-08-24T21:38:06.277Z,7.55
2022-08-24T21:40:36.150Z,8.23
2022-08-24T21:43:09.299Z,9.70
2022-08-24T21:45:42.683Z,7.13
2022-08-24T21:48:12.986Z,8.50
2022-08-24T21:50:40.442Z,7.03
2022-08-24T21:53:08.268Z,7.40
2022-08-24T21:55:36.562Z,6.38
2022-08-24T21:58:05.883Z,9.52
2022-08-24T22:00:35.569Z,8.70
2022-08-24T22:03:05.339Z,9.52
2022-08-24T22:05:32.977Z,14.95
2022-08-24T22:08:00.380Z,8.27
2022-08-24T22:10:28.243Z,9.20
2022-08-24T22:12:55.705Z,8.43
2022-08-24T22:15:23.861Z,8.50
2022-08-24T22:17:52.691Z,8.02
2022-08-24T22:20:23.058Z,7.40
2022-08-24T22:22:51.970Z,9.30
2022-08-24T22:25:20.862Z,8.73
2022-08-24T22:27:48.402Z,9.98
2022-08-24T22:30:18.556Z,7.03
2022-08-24T22:32:46.261Z,9.18
2022-08-24T22:35:14.342Z,9.80
2022-08-24T22:37:41.978Z,10.73
2022-08-24T22:40:12.371Z,10.75
2022-08-24T22:42:40.779Z,11.00
2022-08-24T22:45:09.916Z,11.45
2022-08-24T22:47:38.269Z,10.90
2022-08-24T22:50:07.063Z,14.90
2022-08-24T22:52:34.587Z,9.38
2022-08-24T22:55:02.989Z,11.43
2022-08-24T22:57:30.573Z,12.25
2022-08-24T22:59:58.197Z,7.88
2022-08-24T23:02:25.820Z,11.88
2022-08-24T23:04:54.007Z,14.55
2022-08-24T23:07:21.752Z,9.93
2022-08-24T23:09:49.344Z,11.27
2022-08-24T23:12:22.447Z,10.80
2022-08-24T23:14:52.636Z,11.77
2022-08-24T23:17:22.657Z,9.85
2022-08-24T23:20:06.299Z,8.98
2022-08-24T23:22:40.509Z,9.18
2022-08-24T23:25:12.707Z,10.63
2022-08-24T23:27:41.364Z,8.60
2022-08-24T23:30:13.685Z,8.95
2022-08-24T23:32:41.283Z,7.32
2022-08-24T23:35:09.619Z,11.48
2022-08-24T23:37:37.192Z,8.68
2022-08-24T23:40:05.521Z,10.90
2022-08-24T23:42:33.138Z,13.70
2022-08-24T23:45:00.640Z,12.05
2022-08-24T23:47:28.562Z,9.10
2022-08-24T23:49:56.143Z,10.68
2022-08-24T23:52:26.538Z,11.40
2022-08-24T23:55:06.082Z,13.45
2022-08-24T23:57:47.189Z,9.18
